Terminal Aerodrome Forecast
Issued by NWS Brownsville, TX

Home | Current Version | Previous Version | Text Only | Print | Product List | Glossary On
Versions: 1 2 3 4 5 6 7 8 9 10 11 12 13 14 15 16
000
FTUS44 KBRO 270500
TAFMFE
TAF
KMFE 270520Z 2706/2806 11007KT P6SM SKC
      TEMPO 2710/2714 BKN025
     FM271500 01007KT P6SM VCSH FEW040
     FM272100 05011G17KT P6SM VCSH SCT030 BKN040
     FM280200 04010KT P6SM BKN025=

USA.gov is the U.S. government's official web portal to all federal, state and local government web resources and services.